Time;durP1;ratioP1;P1;durP2;ratioP2;P2;SDS_P1;SDS_P2;PMS_P1;PMS_P2;Temp;Humidity;BMP_temperature;BMP_pressure;BME280_temperature;BME280_humidity;BME280_pressure;Samples;Min_cycle;Max_cycle;Signal;HPM_P1;HPM_P2
2022/04/27 00:00:38;;;;;;;8.32;3.90;;;;;;;;;;4994835;28;20027;-76
2022/04/27 00:03:05;;;;;;;7.32;3.17;;;;;;;;;;4995172;28;20037;-76
2022/04/27 00:05:32;;;;;;;7.90;3.00;;;;;;;;;;4994654;28;20591;-75
2022/04/27 00:07:59;;;;;;;7.07;3.42;;;;;;;;;;4994968;28;20032;-76
2022/04/27 00:10:25;;;;;;;6.32;3.63;;;;;;;;;;4995221;28;20359;-75
2022/04/27 00:12:51;;;;;;;5.78;3.72;;;;;;;;;;4994615;28;20037;-76
2022/04/27 00:15:20;;;;;;;8.32;4.45;;;;;;;;;;4994829;28;20031;-75
2022/04/27 00:17:47;;;;;;;7.55;3.33;;;;;;;;;;4994839;28;20025;-76
2022/04/27 00:20:13;;;;;;;7.25;3.80;;;;;;;;;;4993898;28;20022;-75
2022/04/27 00:22:39;;;;;;;7.55;3.13;;;;;;;;;;4994968;28;20026;-75
2022/04/27 00:25:05;;;;;;;10.35;3.17;;;;;;;;;;4993201;28;20482;-75
2022/04/27 00:27:31;;;;;;;6.22;3.60;;;;;;;;;;4994339;28;20528;-76
2022/04/27 00:29:58;;;;;;;8.80;3.65;;;;;;;;;;4994627;28;20036;-76
2022/04/27 00:32:25;;;;;;;12.32;3.85;;;;;;;;;;4994355;28;20493;-76
2022/04/27 00:34:51;;;;;;;8.43;3.72;;;;;;;;;;4994170;28;20474;-75
2022/04/27 00:37:18;;;;;;;5.32;3.47;;;;;;;;;;4994186;28;20027;-76
2022/04/27 00:39:45;;;;;;;8.80;3.63;;;;;;;;;;4994271;28;20105;-75
2022/04/27 00:42:18;;;;;;;5.93;3.35;;;;;;;;;;4993750;28;20026;-75
2022/04/27 00:44:45;;;;;;;6.38;3.58;;;;;;;;;;4994392;28;20046;-75
2022/04/27 00:47:11;;;;;;;6.15;3.40;;;;;;;;;;4993614;28;20517;-75
2022/04/27 00:49:41;;;;;;;6.03;3.72;;;;;;;;;;4994162;28;20062;-76
2022/04/27 00:52:07;;;;;;;9.60;4.05;;;;;;;;;;4992915;28;20026;-76
2022/04/27 00:54:34;;;;;;;7.18;3.30;;;;;;;;;;4993903;28;20037;-75
2022/04/27 00:57:00;;;;;;;6.53;3.22;;;;;;;;;;4993987;28;20102;-76
2022/04/27 00:59:27;;;;;;;6.85;3.40;;;;;;;;;;4992378;28;20034;-75
2022/04/27 01:01:53;;;;;;;11.85;4.22;;;;;;;;;;4994131;28;20486;-75
2022/04/27 01:04:19;;;;;;;7.68;3.53;;;;;;;;;;4993903;28;20034;-75
2022/04/27 01:06:45;;;;;;;7.28;3.10;;;;;;;;;;4994077;28;20029;-75
2022/04/27 01:09:12;;;;;;;6.78;3.08;;;;;;;;;;4993697;28;20030;-76
2022/04/27 01:11:40;;;;;;;5.82;3.75;;;;;;;;;;4993497;28;20101;-75
2022/04/27 01:14:06;;;;;;;12.05;4.15;;;;;;;;;;4993024;28;20044;-76
2022/04/27 01:16:32;;;;;;;7.97;3.78;;;;;;;;;;4993741;28;20026;-76
2022/04/27 01:18:58;;;;;;;8.00;3.55;;;;;;;;;;4993932;28;20039;-75
2022/04/27 01:21:26;;;;;;;12.40;4.03;;;;;;;;;;4993654;28;20153;-76
2022/04/27 01:23:52;;;;;;;7.43;3.83;;;;;;;;;;4993648;28;20033;-75
2022/04/27 01:26:19;;;;;;;7.43;4.07;;;;;;;;;;4992053;28;20149;-78
2022/04/27 01:28:45;;;;;;;8.82;3.65;;;;;;;;;;4993651;28;20394;-75
2022/04/27 01:31:11;;;;;;;8.82;3.78;;;;;;;;;;4993555;28;20053;-76
2022/04/27 01:33:38;;;;;;;8.05;3.75;;;;;;;;;;4993329;28;20030;-77
2022/04/27 01:36:05;;;;;;;8.27;3.50;;;;;;;;;;4993436;28;20026;-77
2022/04/27 01:38:35;;;;;;;10.38;3.85;;;;;;;;;;4993172;28;20036;-80
2022/04/27 01:41:02;;;;;;;8.30;3.97;;;;;;;;;;4991878;28;20105;-77
2022/04/27 01:43:29;;;;;;;11.20;3.80;;;;;;;;;;4993205;28;20034;-77
2022/04/27 01:45:55;;;;;;;9.05;3.90;;;;;;;;;;4993435;28;20102;-77
2022/04/27 01:48:22;;;;;;;11.65;3.85;;;;;;;;;;4993115;28;20033;-76
2022/04/27 01:50:48;;;;;;;13.13;3.80;;;;;;;;;;4993360;28;20482;-77
2022/04/27 01:55:58;;;;;;;7.22;4.10;;;;;;;;;;4993239;28;20049;-77
2022/04/27 01:58:25;;;;;;;6.50;3.55;;;;;;;;;;4992353;28;20034;-77
2022/04/27 02:00:51;;;;;;;6.60;3.60;;;;;;;;;;4992673;28;20026;-77
2022/04/27 02:03:18;;;;;;;6.78;4.00;;;;;;;;;;4992844;28;20157;-77
2022/04/27 02:05:44;;;;;;;7.50;3.00;;;;;;;;;;4993172;28;20030;-77
2022/04/27 02:08:10;;;;;;;8.88;3.28;;;;;;;;;;4991916;28;20113;-77
2022/04/27 02:10:37;;;;;;;8.48;3.35;;;;;;;;;;4993244;28;20023;-77
2022/04/27 02:13:03;;;;;;;7.63;3.45;;;;;;;;;;4996157;28;20041;-77
2022/04/27 02:15:30;;;;;;;7.28;3.72;;;;;;;;;;4996105;28;20027;-77
2022/04/27 02:17:56;;;;;;;9.35;3.25;;;;;;;;;;4997587;28;20049;-76
2022/04/27 02:20:23;;;;;;;6.65;3.30;;;;;;;;;;4996780;28;20065;-77
2022/04/27 02:22:49;;;;;;;5.95;3.22;;;;;;;;;;4996643;28;20054;-78
2022/04/27 02:25:15;;;;;;;6.75;3.92;;;;;;;;;;4996935;28;20014;-77
2022/04/27 02:27:43;;;;;;;9.00;3.33;;;;;;;;;;4996733;28;20033;-77
2022/04/27 02:30:09;;;;;;;8.18;3.75;;;;;;;;;;4995697;28;20049;-77
2022/04/27 02:32:35;;;;;;;8.80;3.80;;;;;;;;;;4977649;28;20038;-77
2022/04/27 02:35:02;;;;;;;7.18;3.58;;;;;;;;;;4975939;28;20382;-77
2022/04/27 02:37:28;;;;;;;7.10;3.45;;;;;;;;;;4976663;28;20031;-77
2022/04/27 02:39:54;;;;;;;8.13;3.63;;;;;;;;;;4977293;28;20379;-76
2022/04/27 02:42:20;;;;;;;7.75;3.65;;;;;;;;;;4977303;28;20059;-77
2022/04/27 02:44:46;;;;;;;6.07;2.97;;;;;;;;;;4976893;28;20038;-75
2022/04/27 02:47:12;;;;;;;7.68;3.08;;;;;;;;;;4976784;28;20055;-76
2022/04/27 02:52:23;;;;;;;6.75;3.90;;;;;;;;;;4976546;28;20045;-77
2022/04/27 02:54:49;;;;;;;6.68;3.50;;;;;;;;;;4976599;28;20101;-78
2022/04/27 02:57:16;;;;;;;6.72;3.72;;;;;;;;;;4976770;28;20650;-77
2022/04/27 02:59:42;;;;;;;8.13;3.55;;;;;;;;;;4976676;28;20490;-77
2022/04/27 03:02:08;;;;;;;10.55;3.80;;;;;;;;;;4977129;28;20030;-77
2022/04/27 03:04:34;;;;;;;6.05;3.17;;;;;;;;;;4976595;28;20098;-77
2022/04/27 03:07:00;;;;;;;10.57;3.67;;;;;;;;;;4976385;28;20035;-77
2022/04/27 03:09:27;;;;;;;6.95;3.75;;;;;;;;;;4976755;28;20035;-77
2022/04/27 03:11:53;;;;;;;6.57;3.65;;;;;;;;;;4976699;28;20569;-76
2022/04/27 03:14:20;;;;;;;5.85;3.58;;;;;;;;;;4976450;28;20096;-77
2022/04/27 03:16:46;;;;;;;8.27;4.10;;;;;;;;;;4976582;28;20027;-77
2022/04/27 03:19:12;;;;;;;8.10;4.00;;;;;;;;;;4976417;28;20022;-77
2022/04/27 03:21:38;;;;;;;7.32;4.03;;;;;;;;;;4976157;28;20443;-77
2022/04/27 03:24:05;;;;;;;10.55;4.10;;;;;;;;;;4976069;28;20033;-77
2022/04/27 03:26:31;;;;;;;12.93;4.18;;;;;;;;;;4976283;28;20094;-77
2022/04/27 03:28:58;;;;;;;10.48;4.57;;;;;;;;;;5012784;28;20366;-77
2022/04/27 03:31:24;;;;;;;9.27;3.70;;;;;;;;;;5015477;28;20416;-77
2022/04/27 03:33:50;;;;;;;12.52;4.13;;;;;;;;;;5015136;28;20053;-77
2022/04/27 03:36:16;;;;;;;8.93;4.38;;;;;;;;;;5013524;28;20034;-76
2022/04/27 03:38:48;;;;;;;15.90;4.03;;;;;;;;;;5015193;28;20032;-77
2022/04/27 03:41:17;;;;;;;8.73;4.43;;;;;;;;;;5015081;28;20397;-77
2022/04/27 03:43:44;;;;;;;11.45;4.35;;;;;;;;;;5015219;28;20065;-77
2022/04/27 03:46:10;;;;;;;8.68;4.22;;;;;;;;;;5015029;28;20050;-77
2022/04/27 03:48:36;;;;;;;9.43;4.13;;;;;;;;;;5014782;28;20026;-78
2022/04/27 03:51:02;;;;;;;12.07;4.15;;;;;;;;;;5014941;28;20021;-76
2022/04/27 03:53:29;;;;;;;6.90;4.38;;;;;;;;;;5014757;28;20080;-77
2022/04/27 03:55:55;;;;;;;9.60;4.43;;;;;;;;;;5014718;28;20061;-77
2022/04/27 03:58:21;;;;;;;12.35;4.20;;;;;;;;;;5015136;28;20553;-77
2022/04/27 04:00:47;;;;;;;9.13;4.22;;;;;;;;;;5014563;28;20474;-77
2022/04/27 04:03:13;;;;;;;8.23;4.35;;;;;;;;;;5014725;28;20087;-77
2022/04/27 04:05:39;;;;;;;7.22;4.00;;;;;;;;;;5014098;28;20539;-77
2022/04/27 04:08:05;;;;;;;10.70;4.75;;;;;;;;;;5014487;28;20018;-77
2022/04/27 04:10:32;;;;;;;11.32;3.85;;;;;;;;;;5014434;28;20053;-77
2022/04/27 04:12:58;;;;;;;7.85;4.15;;;;;;;;;;5014615;28;20029;-77
2022/04/27 04:15:24;;;;;;;7.07;3.67;;;;;;;;;;5014330;28;20037;-79
2022/04/27 04:17:50;;;;;;;9.40;3.72;;;;;;;;;;5014814;28;20363;-78
2022/04/27 04:20:19;;;;;;;8.23;3.83;;;;;;;;;;5014041;28;20030;-78
2022/04/27 04:22:46;;;;;;;9.27;4.03;;;;;;;;;;5014053;28;20109;-78
2022/04/27 04:30:41;;;;;;;7.93;4.20;;;;;;;;;;5014137;28;20060;-77
2022/04/27 04:33:08;;;;;;;11.68;3.97;;;;;;;;;;5013670;28;20481;-78
2022/04/27 04:35:34;;;;;;;8.93;3.65;;;;;;;;;;5013200;28;20032;-77
2022/04/27 04:38:00;;;;;;;7.63;3.20;;;;;;;;;;5012793;28;20029;-77
2022/04/27 04:40:26;;;;;;;9.95;3.85;;;;;;;;;;5014398;28;20041;-77
2022/04/27 04:42:53;;;;;;;6.40;3.40;;;;;;;;;;5013845;28;20026;-77
2022/04/27 04:45:19;;;;;;;7.22;3.15;;;;;;;;;;5013697;28;20485;-77
2022/04/27 04:47:45;;;;;;;7.85;3.53;;;;;;;;;;5013037;28;20045;-77
2022/04/27 04:50:12;;;;;;;8.18;3.65;;;;;;;;;;5013992;28;20021;-78
2022/04/27 04:52:38;;;;;;;11.07;4.05;;;;;;;;;;5013763;28;20033;-77
2022/04/27 04:55:04;;;;;;;5.93;3.28;;;;;;;;;;5013776;28;20030;-77
2022/04/27 04:57:31;;;;;;;7.90;3.45;;;;;;;;;;5013613;28;20033;-78
2022/04/27 04:59:58;;;;;;;10.43;3.88;;;;;;;;;;5013810;28;20084;-77
2022/04/27 05:02:24;;;;;;;5.97;3.03;;;;;;;;;;5013107;28;20029;-77
2022/04/27 05:04:51;;;;;;;7.43;3.80;;;;;;;;;;5013613;28;20034;-77
2022/04/27 05:07:18;;;;;;;11.65;3.53;;;;;;;;;;5013495;28;20496;-77
2022/04/27 05:09:44;;;;;;;8.15;4.20;;;;;;;;;;5013635;28;20418;-77
2022/04/27 05:12:10;;;;;;;8.88;3.58;;;;;;;;;;5013646;28;20401;-77
2022/04/27 05:14:37;;;;;;;6.53;3.67;;;;;;;;;;5013214;28;20037;-77
2022/04/27 05:17:03;;;;;;;9.20;4.20;;;;;;;;;;5013124;28;20032;-77
2022/04/27 05:19:29;;;;;;;9.48;4.07;;;;;;;;;;5013490;28;20034;-77
2022/04/27 05:21:55;;;;;;;8.07;3.95;;;;;;;;;;5013347;28;20018;-77
2022/04/27 05:24:21;;;;;;;7.32;3.85;;;;;;;;;;5013157;28;20049;-77
2022/04/27 05:26:48;;;;;;;9.15;3.30;;;;;;;;;;5012765;28;20026;-77
2022/04/27 05:31:59;;;;;;;9.05;4.00;;;;;;;;;;5013082;28;20504;-77
2022/04/27 05:34:26;;;;;;;11.00;4.22;;;;;;;;;;5013060;28;20036;-77
2022/04/27 05:36:52;;;;;;;10.85;3.92;;;;;;;;;;5013062;28;20970;-77
2022/04/27 05:39:20;;;;;;;8.82;3.80;;;;;;;;;;5013076;28;20454;-77
2022/04/27 05:41:47;;;;;;;12.10;4.05;;;;;;;;;;5012408;28;20466;-77
2022/04/27 05:44:13;;;;;;;7.57;4.30;;;;;;;;;;4992220;28;20026;-77
2022/04/27 05:46:40;;;;;;;8.18;4.18;;;;;;;;;;4992577;28;20046;-77
2022/04/27 05:49:06;;;;;;;9.57;4.07;;;;;;;;;;4993169;28;20026;-77
2022/04/27 05:51:32;;;;;;;9.63;3.55;;;;;;;;;;4993089;28;20094;-77
2022/04/27 05:53:58;;;;;;;9.90;4.57;;;;;;;;;;4993117;28;20499;-77
2022/04/27 05:56:25;;;;;;;8.07;3.67;;;;;;;;;;4993325;28;20025;-77
2022/04/27 05:58:51;;;;;;;7.80;3.60;;;;;;;;;;4993336;28;20053;-77
2022/04/27 06:01:18;;;;;;;5.90;3.75;;;;;;;;;;4992842;28;20026;-77
2022/04/27 06:03:44;;;;;;;8.70;3.90;;;;;;;;;;4992933;28;20030;-77
2022/04/27 06:06:11;;;;;;;9.90;3.85;;;;;;;;;;4993422;28;20113;-77
2022/04/27 06:08:37;;;;;;;9.65;4.43;;;;;;;;;;4991989;28;20034;-77
2022/04/27 06:11:03;;;;;;;7.38;3.72;;;;;;;;;;4992548;28;20033;-77
2022/04/27 06:13:31;;;;;;;6.45;3.95;;;;;;;;;;4992710;28;20533;-78
2022/04/27 06:15:57;;;;;;;16.15;5.28;;;;;;;;;;4992365;28;20099;-78
2022/04/27 06:18:23;;;;;;;9.68;4.20;;;;;;;;;;4992706;28;20097;-78
2022/04/27 06:20:52;;;;;;;7.40;3.65;;;;;;;;;;4992417;28;20023;-78
2022/04/27 06:23:18;;;;;;;11.05;4.30;;;;;;;;;;4992953;28;20019;-78
2022/04/27 06:25:47;;;;;;;9.48;3.97;;;;;;;;;;4992112;28;20054;-81
2022/04/27 06:28:13;;;;;;;5.72;4.05;;;;;;;;;;4992663;28;20367;-77
2022/04/27 06:30:40;;;;;;;7.10;4.50;;;;;;;;;;4992235;28;20019;-79
2022/04/27 06:33:06;;;;;;;7.30;4.22;;;;;;;;;;4992783;28;20030;-76
2022/04/27 06:35:33;;;;;;;7.78;4.45;;;;;;;;;;4993248;28;20045;-77
2022/04/27 06:37:59;;;;;;;7.40;4.28;;;;;;;;;;4992766;28;20026;-77
2022/04/27 06:40:25;;;;;;;9.85;4.55;;;;;;;;;;4992728;28;20046;-78
2022/04/27 06:42:52;;;;;;;7.68;3.97;;;;;;;;;;4992578;28;20491;-77
2022/04/27 06:45:18;;;;;;;10.15;4.43;;;;;;;;;;4991911;28;20090;-78
2022/04/27 06:47:44;;;;;;;6.38;3.65;;;;;;;;;;4986908;28;20081;-79
2022/04/27 06:50:12;;;;;;;6.53;3.90;;;;;;;;;;4992931;28;20058;-77
2022/04/27 06:52:47;;;;;;;8.20;3.42;;;;;;;;;;4992585;28;20026;-79
2022/04/27 06:55:13;;;;;;;8.30;4.00;;;;;;;;;;4992418;28;20030;-78
2022/04/27 06:57:39;;;;;;;6.70;3.80;;;;;;;;;;4991265;28;20505;-77
2022/04/27 07:00:08;;;;;;;8.00;3.80;;;;;;;;;;4994987;28;20066;-78
2022/04/27 07:02:34;;;;;;;7.00;3.55;;;;;;;;;;4995867;28;20646;-79
2022/04/27 07:05:01;;;;;;;6.88;3.72;;;;;;;;;;4993109;28;20145;-78
2022/04/27 07:07:28;;;;;;;9.88;3.53;;;;;;;;;;4992224;28;20081;-78
2022/04/27 07:09:54;;;;;;;10.50;4.10;;;;;;;;;;4994189;28;20498;-78
2022/04/27 07:12:20;;;;;;;5.78;3.50;;;;;;;;;;4994808;28;20027;-78
2022/04/27 07:14:48;;;;;;;9.13;3.53;;;;;;;;;;4994853;28;20056;-78
2022/04/27 07:17:14;;;;;;;8.68;3.67;;;;;;;;;;4994892;28;20117;-78
2022/04/27 07:19:40;;;;;;;6.00;3.63;;;;;;;;;;4994326;28;20022;-78
2022/04/27 07:22:06;;;;;;;4.90;3.00;;;;;;;;;;4995167;28;20351;-78
2022/04/27 07:24:32;;;;;;;8.43;4.13;;;;;;;;;;4982227;28;20037;-78
2022/04/27 07:26:59;;;;;;;12.77;3.75;;;;;;;;;;4993711;28;20030;-76
2022/04/27 07:29:25;;;;;;;6.80;3.05;;;;;;;;;;4984319;28;20035;-76
2022/04/27 07:31:51;;;;;;;5.55;3.15;;;;;;;;;;4994943;28;20035;-77
2022/04/27 07:34:17;;;;;;;7.28;3.97;;;;;;;;;;4986763;28;20037;-76
2022/04/27 07:36:43;;;;;;;8.85;3.50;;;;;;;;;;5020991;28;20113;-76
2022/04/27 07:39:09;;;;;;;6.47;3.63;;;;;;;;;;4993051;28;20397;-77
2022/04/27 07:41:35;;;;;;;5.57;2.83;;;;;;;;;;4995694;28;20574;-77
2022/04/27 07:44:02;;;;;;;8.57;4.05;;;;;;;;;;4989541;28;20034;-77
2022/04/27 07:46:28;;;;;;;7.50;3.67;;;;;;;;;;4985925;28;20045;-78
2022/04/27 07:48:54;;;;;;;6.50;3.78;;;;;;;;;;4994357;28;20023;-79
2022/04/27 07:51:21;;;;;;;6.25;3.00;;;;;;;;;;4994739;28;20030;-79
2022/04/27 07:53:47;;;;;;;6.60;3.78;;;;;;;;;;5006573;28;20052;-79
2022/04/27 07:56:13;;;;;;;8.48;3.45;;;;;;;;;;4993463;28;20056;-80
2022/04/27 07:58:39;;;;;;;5.10;3.15;;;;;;;;;;4993947;28;20030;-76
2022/04/27 08:01:05;;;;;;;9.73;3.42;;;;;;;;;;4994159;28;20026;-76
2022/04/27 08:03:32;;;;;;;11.88;3.53;;;;;;;;;;4994102;28;20019;-78
2022/04/27 08:06:00;;;;;;;8.98;3.63;;;;;;;;;;4993836;28;20129;-76
2022/04/27 08:08:26;;;;;;;7.50;3.92;;;;;;;;;;4993831;28;20356;-77
2022/04/27 08:10:52;;;;;;;5.32;3.30;;;;;;;;;;4992689;28;20033;-77
2022/04/27 08:13:18;;;;;;;6.88;3.10;;;;;;;;;;4993879;28;20025;-77
2022/04/27 08:15:44;;;;;;;9.40;3.53;;;;;;;;;;4997416;28;20034;-77
2022/04/27 08:18:10;;;;;;;6.28;3.40;;;;;;;;;;4993534;28;20065;-79
2022/04/27 08:23:29;;;;;;;7.05;3.22;;;;;;;;;;4993771;28;20037;-79
2022/04/27 08:25:56;;;;;;;10.23;3.70;;;;;;;;;;4992994;28;20402;-78
2022/04/27 08:28:22;;;;;;;7.78;3.25;;;;;;;;;;4991628;28;20037;-77
2022/04/27 08:30:49;;;;;;;11.80;3.55;;;;;;;;;;4993895;28;20030;-78
2022/04/27 08:33:15;;;;;;;6.40;3.17;;;;;;;;;;4994127;28;20014;-77
2022/04/27 08:35:41;;;;;;;5.68;3.42;;;;;;;;;;4993978;28;20022;-77
2022/04/27 08:38:09;;;;;;;8.05;3.30;;;;;;;;;;4993537;28;20418;-80
2022/04/27 08:40:36;;;;;;;5.00;2.80;;;;;;;;;;4993415;28;20101;-77
2022/04/27 08:43:02;;;;;;;7.47;3.30;;;;;;;;;;4994299;28;20430;-78
2022/04/27 08:45:28;;;;;;;12.55;3.08;;;;;;;;;;4994130;28;20461;-82
2022/04/27 08:47:54;;;;;;;4.70;2.97;;;;;;;;;;4994010;28;20057;-84
2022/04/27 08:50:21;;;;;;;7.93;3.10;;;;;;;;;;4993436;28;20026;-83
2022/04/27 08:52:51;;;;;;;6.38;2.92;;;;;;;;;;4993797;28;20102;-84
2022/04/27 08:55:18;;;;;;;8.07;3.00;;;;;;;;;;4992671;28;20022;-78
2022/04/27 08:57:44;;;;;;;5.13;3.05;;;;;;;;;;4974730;28;20445;-79
2022/04/27 09:00:12;;;;;;;4.32;2.58;;;;;;;;;;4973107;28;20026;-74
2022/04/27 09:02:38;;;;;;;5.95;3.25;;;;;;;;;;4974780;28;20530;-74
2022/04/27 09:05:06;;;;;;;5.53;3.45;;;;;;;;;;4992450;28;20157;-78
2022/04/27 09:07:39;;;;;;;6.20;3.47;;;;;;;;;;4994051;28;20037;-73
2022/04/27 09:10:06;;;;;;;7.55;2.50;;;;;;;;;;4985485;28;20038;-74
2022/04/27 09:12:33;;;;;;;4.00;2.58;;;;;;;;;;4991268;28;20030;-74
2022/04/27 09:15:04;;;;;;;6.60;2.70;;;;;;;;;;4993228;28;20460;-74
2022/04/27 09:23:01;;;;;;;6.28;2.75;;;;;;;;;;4992933;28;20118;-74
2022/04/27 09:25:31;;;;;;;6.30;3.13;;;;;;;;;;4992782;28;20034;-74
2022/04/27 09:27:57;;;;;;;5.95;2.88;;;;;;;;;;4993371;28;20057;-74
2022/04/27 09:30:27;;;;;;;4.15;2.83;;;;;;;;;;4993244;28;20494;-74
2022/04/27 12:01:29;;;;;;;5.30;2.22;;;;;;;;;;6069668;23;21035;31
2022/04/27 12:03:55;;;;;;;8.38;2.42;;;;;;;;;;4913320;29;20119;-73
2022/04/27 12:06:22;;;;;;;3.17;1.95;;;;;;;;;;4918456;29;20392;-75
2022/04/27 12:08:48;;;;;;;4.20;2.05;;;;;;;;;;4918229;29;20024;-76
2022/04/27 12:11:24;;;;;;;11.93;2.20;;;;;;;;;;4918101;29;20056;-75
2022/04/27 12:13:50;;;;;;;4.70;2.28;;;;;;;;;;4916957;29;20036;-74
2022/04/27 12:16:16;;;;;;;3.88;2.15;;;;;;;;;;4917536;29;20088;-75
2022/04/27 12:18:52;;;;;;;5.20;2.53;;;;;;;;;;4917140;29;20035;-75
2022/04/27 12:21:24;;;;;;;5.05;2.10;;;;;;;;;;4917384;29;20051;-75
2022/04/27 12:23:52;;;;;;;5.53;2.08;;;;;;;;;;4917302;29;20056;-75
2022/04/27 12:26:18;;;;;;;5.18;2.08;;;;;;;;;;4917306;29;20414;-74
2022/04/27 12:28:49;;;;;;;5.28;2.30;;;;;;;;;;4917258;29;20488;-74
2022/04/27 12:31:16;;;;;;;6.55;2.00;;;;;;;;;;4915626;29;20020;-74
2022/04/27 12:33:43;;;;;;;10.27;3.08;;;;;;;;;;4916863;29;20040;-74
2022/04/27 12:39:03;;;;;;;3.75;2.00;;;;;;;;;;4907892;29;20064;-75
2022/04/27 12:41:30;;;;;;;6.20;2.28;;;;;;;;;;4917225;29;20063;-75
2022/04/27 12:44:01;;;;;;;4.95;2.47;;;;;;;;;;4917150;29;20036;-74
2022/04/27 12:46:27;;;;;;;4.88;2.28;;;;;;;;;;4915649;29;20032;-74
2022/04/27 12:49:01;;;;;;;5.15;2.17;;;;;;;;;;4917569;29;20028;-76
2022/04/27 12:51:32;;;;;;;4.70;2.20;;;;;;;;;;4917258;29;20032;-75
2022/04/27 12:53:58;;;;;;;3.60;2.25;;;;;;;;;;4916482;29;20095;-75
2022/04/27 12:56:31;;;;;;;4.00;2.30;;;;;;;;;;4916588;29;20056;-74
2022/04/27 12:59:03;;;;;;;3.97;2.03;;;;;;;;;;4916670;29;20038;-75
2022/04/27 13:01:30;;;;;;;9.13;2.15;;;;;;;;;;4917464;29;20080;-74
2022/04/27 13:03:56;;;;;;;4.10;2.35;;;;;;;;;;4935029;29;20079;-74
2022/04/27 13:06:22;;;;;;;3.58;1.80;;;;;;;;;;4936053;29;20431;-74
2022/04/27 13:08:52;;;;;;;4.35;2.35;;;;;;;;;;4935186;29;20062;-74
2022/04/27 13:14:06;;;;;;;4.38;1.80;;;;;;;;;;4931985;29;20447;-74
2022/04/27 13:16:32;;;;;;;4.45;2.53;;;;;;;;;;4935225;29;20027;-74
2022/04/27 13:18:58;;;;;;;8.05;2.10;;;;;;;;;;4936208;29;20027;-74
2022/04/27 13:21:24;;;;;;;3.35;1.90;;;;;;;;;;4936013;29;20110;-74
2022/04/27 13:23:50;;;;;;;8.52;2.60;;;;;;;;;;4934832;29;20032;-74
2022/04/27 13:26:17;;;;;;;8.35;2.33;;;;;;;;;;4935676;29;20035;-74
2022/04/27 13:28:43;;;;;;;3.95;2.00;;;;;;;;;;4935608;29;20035;-74
2022/04/27 13:31:09;;;;;;;8.60;2.10;;;;;;;;;;4935532;29;20054;-74
2022/04/27 13:33:35;;;;;;;11.50;1.90;;;;;;;;;;4935487;29;20511;-74
2022/04/27 13:36:01;;;;;;;3.83;2.25;;;;;;;;;;4935625;29;20034;-74
2022/04/27 13:38:30;;;;;;;5.65;2.10;;;;;;;;;;4935246;29;20023;-74
2022/04/27 13:40:57;;;;;;;4.28;2.17;;;;;;;;;;4935349;29;20086;-74
2022/04/27 13:43:23;;;;;;;3.33;2.00;;;;;;;;;;4935820;29;20099;-74
2022/04/27 13:45:49;;;;;;;6.10;2.30;;;;;;;;;;4935148;29;20031;-73
2022/04/27 13:48:15;;;;;;;4.55;1.85;;;;;;;;;;4935362;29;20090;-73
2022/04/27 13:50:41;;;;;;;5.47;2.60;;;;;;;;;;4935435;29;20083;-73
2022/04/27 13:53:07;;;;;;;5.20;2.00;;;;;;;;;;4935088;29;20032;-73
2022/04/27 14:42:42;;;;;;;5.88;2.03;;;;;;;;;;5284029;23;20089;-79
2022/04/27 14:45:08;;;;;;;10.45;1.88;;;;;;;;;;4997010;28;20034;-74
2022/04/27 14:47:34;;;;;;;6.47;2.15;;;;;;;;;;4996965;28;20072;-74
2022/04/27 14:50:00;;;;;;;4.72;2.30;;;;;;;;;;4976638;28;20023;-75
2022/04/27 14:52:27;;;;;;;4.00;2.20;;;;;;;;;;4976382;28;20026;-75
2022/04/27 14:54:53;;;;;;;4.00;1.90;;;;;;;;;;4975577;28;20033;-74
2022/04/27 14:57:19;;;;;;;5.55;2.63;;;;;;;;;;4976443;28;20082;-74
2022/04/27 14:59:45;;;;;;;7.25;2.22;;;;;;;;;;4975259;28;20031;-75
2022/04/27 15:02:11;;;;;;;6.47;2.17;;;;;;;;;;4974747;28;20035;-74
2022/04/27 15:04:37;;;;;;;3.35;2.00;;;;;;;;;;4977202;28;20085;-75
2022/04/27 15:07:04;;;;;;;5.20;2.20;;;;;;;;;;4975930;28;20035;-74
2022/04/27 15:09:30;;;;;;;6.72;2.20;;;;;;;;;;4976453;28;20026;-74
2022/04/27 15:11:56;;;;;;;9.18;2.28;;;;;;;;;;4975958;28;20065;-74
2022/04/27 15:14:22;;;;;;;4.50;2.08;;;;;;;;;;4975382;28;20655;-74
2022/04/27 15:16:48;;;;;;;4.32;2.35;;;;;;;;;;4976427;28;20049;-74
2022/04/27 15:19:14;;;;;;;3.60;2.00;;;;;;;;;;4973801;28;20022;-74
2022/04/27 15:24:26;;;;;;;8.75;2.33;;;;;;;;;;4975991;28;20068;-74
2022/04/27 15:26:59;;;;;;;3.35;2.03;;;;;;;;;;4975906;28;20043;-74
2022/04/27 15:29:25;;;;;;;5.68;2.40;;;;;;;;;;4990412;28;20113;-74
2022/04/27 15:31:51;;;;;;;3.90;2.30;;;;;;;;;;4995597;28;20065;-74
2022/04/27 15:34:17;;;;;;;4.47;2.10;;;;;;;;;;4983861;28;20374;-74
2022/04/27 15:36:43;;;;;;;4.00;2.17;;;;;;;;;;4976216;28;20541;-74
2022/04/27 15:39:09;;;;;;;5.10;2.28;;;;;;;;;;4976085;28;20031;-74
2022/04/27 15:41:36;;;;;;;6.28;1.88;;;;;;;;;;4971304;28;20399;-74
2022/04/27 15:44:02;;;;;;;4.22;2.17;;;;;;;;;;4956807;28;20027;-74
2022/04/27 15:46:28;;;;;;;4.75;2.08;;;;;;;;;;4964868;28;20533;-74
2022/04/27 15:48:55;;;;;;;5.20;2.17;;;;;;;;;;4991725;28;20146;-74
2022/04/27 15:51:21;;;;;;;4.15;1.73;;;;;;;;;;4975983;28;20379;-74
2022/04/27 15:53:47;;;;;;;2.55;1.55;;;;;;;;;;4975691;28;20504;-74
2022/04/27 15:56:13;;;;;;;5.68;1.70;;;;;;;;;;4975391;28;20037;-74
2022/04/27 15:58:39;;;;;;;3.35;1.50;;;;;;;;;;4974540;28;20386;-74
2022/04/27 16:01:07;;;;;;;3.33;1.60;;;;;;;;;;4976015;28;20041;-74
2022/04/27 16:03:33;;;;;;;4.18;1.85;;;;;;;;;;4975569;28;20077;-74
2022/04/27 16:06:00;;;;;;;2.05;1.35;;;;;;;;;;4975563;28;20023;-74
2022/04/27 16:08:28;;;;;;;5.70;1.58;;;;;;;;;;4975467;28;20450;-74
2022/04/27 16:10:54;;;;;;;5.38;2.00;;;;;;;;;;4975250;28;20494;-74
2022/04/27 16:13:20;;;;;;;5.78;1.50;;;;;;;;;;4975814;28;20023;-74
2022/04/27 16:15:46;;;;;;;4.47;1.60;;;;;;;;;;4975147;28;20042;-74
2022/04/27 16:18:12;;;;;;;5.15;1.52;;;;;;;;;;4976320;28;20406;-74
2022/04/27 16:20:40;;;;;;;4.45;1.70;;;;;;;;;;4994313;28;20486;-74
2022/04/27 16:23:09;;;;;;;3.22;1.80;;;;;;;;;;4993791;28;20076;-74
2022/04/27 16:25:36;;;;;;;3.08;1.60;;;;;;;;;;4995050;28;20022;-74
2022/04/27 16:28:02;;;;;;;4.15;1.50;;;;;;;;;;4991935;28;20065;-74
2022/04/27 16:30:28;;;;;;;3.92;1.42;;;;;;;;;;4974383;28;20042;-74
2022/04/27 16:32:55;;;;;;;4.47;1.95;;;;;;;;;;4994394;28;20041;-74
2022/04/27 16:35:21;;;;;;;4.68;1.88;;;;;;;;;;4994591;28;20030;-74
2022/04/27 16:37:47;;;;;;;2.13;1.42;;;;;;;;;;4987966;28;20026;-75
2022/04/27 16:40:14;;;;;;;3.60;1.48;;;;;;;;;;4981607;28;20023;-74
2022/04/27 16:42:40;;;;;;;4.28;1.65;;;;;;;;;;4974547;28;20046;-74
2022/04/27 16:45:07;;;;;;;6.05;2.30;;;;;;;;;;4974050;28;20041;-74
2022/04/27 16:47:33;;;;;;;3.22;1.73;;;;;;;;;;4974360;28;20060;-74
2022/04/27 16:49:59;;;;;;;5.53;2.10;;;;;;;;;;4974315;28;20067;-74
2022/04/27 16:52:25;;;;;;;4.47;1.85;;;;;;;;;;4973846;28;20035;-74
2022/04/27 16:54:51;;;;;;;3.65;1.63;;;;;;;;;;4974117;28;20062;-74
2022/04/27 16:57:23;;;;;;;7.68;1.80;;;;;;;;;;4973830;28;20034;-74
2022/04/27 16:59:49;;;;;;;2.97;1.40;;;;;;;;;;4974368;28;20023;-74
2022/04/27 17:02:15;;;;;;;2.85;1.48;;;;;;;;;;4973840;28;20466;-74
2022/04/27 17:04:41;;;;;;;2.13;1.30;;;;;;;;;;4973880;28;20514;-74
2022/04/27 17:07:07;;;;;;;3.95;1.55;;;;;;;;;;4973368;28;20026;-74
2022/04/27 17:09:33;;;;;;;4.65;1.30;;;;;;;;;;4974358;28;20482;-74
2022/04/27 17:11:59;;;;;;;3.28;1.58;;;;;;;;;;4973608;28;20054;-74
2022/04/27 17:14:25;;;;;;;3.20;1.45;;;;;;;;;;4973615;28;20117;-74
2022/04/27 17:16:51;;;;;;;5.75;1.70;;;;;;;;;;4973867;28;20130;-74
2022/04/27 17:19:18;;;;;;;7.03;1.42;;;;;;;;;;4973703;28;20023;-77
2022/04/27 17:21:45;;;;;;;2.65;1.52;;;;;;;;;;4973428;28;20077;-74
2022/04/27 17:24:11;;;;;;;4.05;1.50;;;;;;;;;;4973481;28;20030;-74
2022/04/27 17:31:58;;;;;;;4.47;1.30;;;;;;;;;;5249923;23;19922;-77
2022/04/27 17:34:24;;;;;;;3.03;1.38;;;;;;;;;;4972734;28;20042;-77
2022/04/27 17:36:50;;;;;;;3.38;1.45;;;;;;;;;;4972401;28;20490;-77
2022/04/27 17:39:16;;;;;;;5.68;1.60;;;;;;;;;;4971825;28;20394;-77
2022/04/27 17:41:42;;;;;;;5.63;1.48;;;;;;;;;;4979625;28;20081;-73
2022/04/27 17:44:08;;;;;;;2.25;1.00;;;;;;;;;;4972967;28;20098;-73
2022/04/27 17:46:34;;;;;;;3.10;1.27;;;;;;;;;;4973578;28;20118;-74
2022/04/27 17:49:00;;;;;;;6.93;2.17;;;;;;;;;;4973849;28;20374;-74
2022/04/27 17:51:26;;;;;;;7.65;1.20;;;;;;;;;;4973793;28;20023;-74
2022/04/27 17:53:53;;;;;;;3.97;1.23;;;;;;;;;;4974111;28;20039;-73
2022/04/27 17:56:19;;;;;;;3.33;1.50;;;;;;;;;;4972709;28;20422;-73
2022/04/27 17:58:45;;;;;;;2.83;1.58;;;;;;;;;;4974055;28;20093;-73
2022/04/27 18:01:11;;;;;;;6.15;1.60;;;;;;;;;;4973599;28;20082;-74
2022/04/27 18:03:40;;;;;;;6.88;1.70;;;;;;;;;;4973814;28;20031;-74
2022/04/27 18:06:06;;;;;;;4.82;1.42;;;;;;;;;;4982070;28;20432;-74
2022/04/27 18:08:32;;;;;;;6.80;1.85;;;;;;;;;;4993513;28;20022;-75
2022/04/27 18:10:59;;;;;;;4.07;1.48;;;;;;;;;;4988456;28;20023;-75
2022/04/27 18:13:25;;;;;;;3.35;1.65;;;;;;;;;;4973150;28;20034;-74
2022/04/27 18:15:51;;;;;;;4.22;1.45;;;;;;;;;;4971753;28;20037;-75
2022/04/27 18:18:19;;;;;;;2.17;1.20;;;;;;;;;;4973149;28;20031;-75
2022/04/27 18:20:45;;;;;;;3.80;1.73;;;;;;;;;;4973008;28;20034;-74
2022/04/27 18:23:11;;;;;;;4.88;1.80;;;;;;;;;;4972562;28;20574;-75
2022/04/27 18:25:37;;;;;;;4.25;1.35;;;;;;;;;;4972400;28;20081;-75
2022/04/27 18:28:04;;;;;;;8.68;1.90;;;;;;;;;;4973778;28;20054;-75